createdAt,value
2019-02-19T00:06:06.687Z,71.00
2019-02-19T00:13:06.375Z,71.50
2019-02-19T00:20:04.108Z,71.50
2019-02-19T00:27:01.230Z,72.00
2019-02-19T00:33:59.613Z,71.10
2019-02-19T00:40:56.886Z,71.20
2019-02-19T00:47:54.721Z,71.30
2019-02-19T00:54:53.343Z,71.00
2019-02-19T01:01:50.360Z,70.50
2019-02-19T01:08:47.606Z,71.50
2019-02-19T01:15:44.660Z,71.70
2019-02-19T01:22:41.839Z,71.70
2019-02-19T01:29:38.575Z,72.00
2019-02-19T01:36:35.631Z,72.60
2019-02-19T01:43:32.422Z,73.00
2019-02-19T01:50:29.300Z,73.30
2019-02-19T01:57:26.858Z,73.20
2019-02-19T02:04:23.576Z,73.10
2019-02-19T02:11:21.158Z,74.00
2019-02-19T02:18:18.689Z,74.30
2019-02-19T02:25:18.567Z,75.10
2019-02-19T02:32:16.143Z,75.30
2019-02-19T02:39:13.627Z,75.40
2019-02-19T02:46:11.323Z,75.90
2019-02-19T02:53:09.168Z,76.60
2019-02-19T03:00:07.680Z,76.50
2019-02-19T03:07:09.279Z,76.20
2019-02-19T03:14:07.056Z,75.30
2019-02-19T03:21:04.680Z,74.40
2019-02-19T03:28:02.530Z,74.40
2019-02-19T03:34:59.872Z,74.00
2019-02-19T03:41:57.563Z,74.20
2019-02-19T03:48:54.639Z,73.50
2019-02-19T03:55:52.636Z,73.30
2019-02-19T04:02:50.691Z,73.20
2019-02-19T04:09:47.811Z,72.70
2019-02-19T04:16:45.879Z,73.00
2019-02-19T04:23:43.823Z,73.20
2019-02-19T04:30:43.039Z,73.40
2019-02-19T04:37:40.534Z,74.60
2019-02-19T04:44:38.357Z,75.20
2019-02-19T04:51:36.266Z,74.90
2019-02-19T04:58:34.290Z,74.10
2019-02-19T05:05:33.052Z,73.40
2019-02-19T05:12:30.731Z,72.00
2019-02-19T05:19:27.796Z,71.70
2019-02-19T05:26:25.764Z,72.10
2019-02-19T05:33:23.016Z,72.10
2019-02-19T05:40:20.471Z,72.80
2019-02-19T05:47:19.704Z,72.40
2019-02-19T05:54:17.584Z,72.80
2019-02-19T06:01:14.436Z,73.30
2019-02-19T06:08:12.413Z,73.40
2019-02-19T06:15:09.458Z,73.50
2019-02-19T06:22:06.593Z,72.80
2019-02-19T06:29:03.839Z,72.40
2019-02-19T06:36:00.904Z,71.80
2019-02-19T06:42:57.920Z,70.70
2019-02-19T06:49:55.368Z,65.50
2019-02-19T06:56:52.583Z,65.10
2019-02-19T07:11:04.372Z,62.50
2019-02-19T07:18:01.470Z,60.60
2019-02-19T07:24:58.602Z,61.30
2019-02-19T07:31:55.883Z,61.80
2019-02-19T07:38:53.284Z,61.60
2019-02-19T07:45:50.155Z,61.80
2019-02-19T07:52:47.380Z,62.20
2019-02-19T07:59:44.101Z,61.20
2019-02-19T08:06:41.579Z,58.80
2019-02-19T08:13:38.566Z,52.20
2019-02-19T08:20:35.724Z,48.10
2019-02-19T08:27:32.422Z,41.60
2019-02-19T08:34:29.966Z,46.50
2019-02-19T08:41:26.696Z,48.80
2019-02-19T08:48:24.332Z,45.10
2019-02-19T08:55:21.665Z,41.50
2019-02-19T09:02:19.967Z,41.90
2019-02-19T09:09:16.772Z,30.40
2019-02-19T09:16:14.395Z,28.40
2019-02-19T09:22:59.262Z,28.10
2019-02-19T09:29:44.175Z,34.20
2019-02-19T09:36:29.043Z,37.30
2019-02-19T09:43:13.983Z,29.80
2019-02-19T09:50:11.500Z,27.40
2019-02-19T09:57:08.876Z,25.40
2019-02-19T10:03:53.815Z,25.70
2019-02-19T10:10:39.154Z,25.80
2019-02-19T10:17:24.091Z,27.60
2019-02-19T10:24:09.465Z,26.50
2019-02-19T10:30:54.327Z,24.00
2019-02-19T10:37:40.492Z,23.60
2019-02-19T10:44:39.079Z,23.40
2019-02-19T10:51:36.720Z,22.30
2019-02-19T10:58:33.409Z,22.10
2019-02-19T11:05:30.575Z,23.60
2019-02-19T11:12:27.414Z,25.60
2019-02-19T11:19:24.850Z,27.80
2019-02-19T11:26:22.253Z,29.00
2019-02-19T11:33:20.075Z,29.30
2019-02-19T11:40:18.515Z,30.40
2019-02-19T11:47:15.675Z,31.80
2019-02-19T11:54:13.178Z,32.30
2019-02-19T12:00:58.214Z,32.90
2019-02-19T12:08:02.479Z,34.10
2019-02-19T12:15:11.490Z,33.60
2019-02-19T12:21:56.428Z,36.50
2019-02-19T12:28:52.482Z,37.90
2019-02-19T12:35:56.683Z,39.60
2019-02-19T12:42:53.602Z,41.30
2019-02-19T12:49:50.848Z,40.00
2019-02-19T12:56:48.403Z,40.90
2019-02-19T13:03:46.026Z,41.80
2019-02-19T13:10:43.467Z,43.30
2019-02-19T13:17:40.779Z,44.20
2019-02-19T13:24:37.590Z,45.10
2019-02-19T13:31:34.259Z,45.60
2019-02-19T13:38:31.603Z,45.80
2019-02-19T13:45:28.862Z,46.20
2019-02-19T13:52:27.595Z,46.30
2019-02-19T13:59:24.688Z,47.00
2019-02-19T14:06:21.411Z,47.10
2019-02-19T14:13:19.316Z,46.20
2019-02-19T14:20:18.527Z,45.80
2019-02-19T14:27:35.183Z,45.00
2019-02-19T14:34:51.399Z,43.70
2019-02-19T14:42:07.770Z,42.40
2019-02-19T14:49:34.003Z,41.10
2019-02-19T14:56:12.139Z,40.90
2019-02-19T15:03:16.502Z,40.80
2019-02-19T15:10:21.102Z,41.00
2019-02-19T15:17:24.123Z,41.50
2019-02-19T15:24:19.786Z,42.40
2019-02-19T15:31:06.354Z,43.20
2019-02-19T15:38:08.619Z,43.70
2019-02-19T15:44:57.798Z,44.50
2019-02-19T15:52:00.334Z,45.20
2019-02-19T15:58:49.372Z,46.30
2019-02-19T16:06:05.279Z,47.00
2019-02-19T16:13:04.089Z,48.10
2019-02-19T16:20:21.510Z,48.90
2019-02-19T16:27:37.800Z,49.40
2019-02-19T16:34:36.355Z,50.00
2019-02-19T16:41:52.248Z,50.60
2019-02-19T16:56:26.326Z,52.00
2019-02-19T17:03:15.881Z,52.20
2019-02-19T17:10:20.379Z,52.40
2019-02-19T17:17:23.304Z,52.90
2019-02-19T17:31:54.602Z,54.50
2019-02-19T17:46:23.443Z,56.40
2019-02-19T17:53:40.249Z,56.80
2019-02-19T18:00:39.071Z,57.70
2019-02-19T18:07:55.009Z,58.50
2019-02-19T18:15:11.596Z,59.00
2019-02-19T18:22:06.716Z,59.70
2019-02-19T18:29:10.920Z,60.10
2019-02-19T18:36:13.992Z,60.60
2019-02-19T18:43:10.639Z,61.40
2019-02-19T18:50:07.832Z,62.20
2019-02-19T18:57:06.984Z,63.00
2019-02-19T19:04:04.335Z,63.40
2019-02-19T19:11:02.237Z,64.30
2019-02-19T19:17:59.356Z,65.00
2019-02-19T19:24:56.423Z,65.70
2019-02-19T19:31:54.000Z,67.70
2019-02-19T19:38:39.098Z,69.40
2019-02-19T19:45:23.968Z,69.80
2019-02-19T19:52:09.029Z,69.70
2019-02-19T19:58:54.951Z,70.20
2019-02-19T20:05:39.829Z,70.40
2019-02-19T20:12:44.101Z,72.10
2019-02-19T20:19:41.463Z,73.40
2019-02-19T20:26:39.041Z,73.80
2019-02-19T20:33:36.108Z,74.10
2019-02-19T20:40:34.520Z,74.70
2019-02-19T20:47:32.288Z,74.90
2019-02-19T20:54:29.432Z,74.80
2019-02-19T21:01:28.022Z,75.10
2019-02-19T21:08:25.367Z,76.20
2019-02-19T21:15:22.917Z,76.30
2019-02-19T21:22:20.211Z,76.80
2019-02-19T21:29:17.937Z,76.80
2019-02-19T21:36:15.879Z,77.10
2019-02-19T21:43:14.528Z,77.00
2019-02-19T21:50:11.645Z,77.20
2019-02-19T21:57:08.977Z,77.60
2019-02-19T22:04:06.427Z,77.70
2019-02-19T22:11:02.495Z,78.20
2019-02-19T22:18:06.863Z,78.80
2019-02-19T22:25:04.770Z,79.00
2019-02-19T22:32:02.030Z,80.30
2019-02-19T22:38:59.075Z,80.00
2019-02-19T22:45:56.620Z,79.70
2019-02-19T22:52:53.679Z,79.00
2019-02-19T22:59:51.187Z,79.10
2019-02-19T23:06:48.538Z,80.40
2019-02-19T23:13:45.246Z,79.10
2019-02-19T23:20:42.313Z,79.10
2019-02-19T23:27:39.292Z,78.80
2019-02-19T23:34:36.136Z,78.90
2019-02-19T23:41:34.584Z,78.60
2019-02-19T23:48:31.800Z,78.70
2019-02-19T23:55:28.563Z,79.10
